KSQI/SQI METAR and TAF weather

Enter ICAO airport designator
Station Type Date Time Source
KSQI METAR 2019/12/08 06:56 UTC NOAA

KSQI 080656Z AUTO VRB04KT 10SM CLR 01/M02 A3006 RMK AO2 SLP048 T00111017 FZRANO


Station Type Date Time Source
KSQI Decoded METAR 2019/12/08 06:56 UTC NOAA

Sterling Rockfalls, IL, United States (KSQI) 41-45N 089-40W
Dec 08, 2019 - 01:56 AM EST / 2019.12.08 0656 UTC
Wind: Variable at 5 MPH (4 KT):0
Visibility: 10 mile(s):0
Sky conditions: clear
Temperature: 34.0 F (1.1 C)
Windchill: 30 F (-1 C):1
Dew Point: 28.9 F (-1.7 C)
Relative Humidity: 81%
Pressure (altimeter): 30.06 in. Hg (1017 hPa)
ob: KSQI 080656Z AUTO VRB04KT 10SM CLR 01/M02 A3006 RMK AO2 SLP048 T00111017 FZRANO
cycle: 7

Station Type Date Time Source
KSQI TAF UTC NOAA

Error!

Example: see airport list